Time;durP1;ratioP1;P1;durP2;ratioP2;P2;SDS_P1;SDS_P2;PMS_P1;PMS_P2;Temp;Humidity;BMP_temperature;BMP_pressure;BME280_temperature;BME280_humidity;BME280_pressure;Samples;Min_cycle;Max_cycle;Signal;HPM_P1;HPM_P2
2023/10/07 00:00:49;;;;;;;11.63;4.10;;;;;;;14.56;100.00;102103.97;6219573;23;20019;-83
2023/10/07 00:03:17;;;;;;;10.50;4.75;;;;;;;14.57;100.00;102104.72;6192771;23;20021;-83
2023/10/07 00:05:50;;;;;;;14.00;4.85;;;;;;;14.56;100.00;102105.91;6193699;23;20092;-82
2023/10/07 00:08:19;;;;;;;10.15;4.65;;;;;;;14.55;100.00;102107.09;6219125;23;20013;-82
2023/10/07 00:10:49;;;;;;;10.75;4.80;;;;;;;14.54;100.00;102092.19;6193247;23;20027;-82
2023/10/07 00:13:20;;;;;;;5.25;4.05;;;;;;;14.53;100.00;102101.41;6192334;23;20071;-83
2023/10/07 00:15:51;;;;;;;7.80;4.37;;;;;;;14.51;100.00;102101.84;6193268;23;20052;-82
2023/10/07 00:18:20;;;;;;;11.02;4.72;;;;;;;14.49;100.00;102106.88;6219404;23;20462;-82
2023/10/07 00:20:49;;;;;;;10.82;4.82;;;;;;;14.48;100.00;102121.47;6193216;23;20440;-82
2023/10/07 00:23:20;;;;;;;14.75;4.80;;;;;;;14.47;100.00;102114.59;6167444;23;20088;-83
2023/10/07 00:25:51;;;;;;;13.10;4.43;;;;;;;14.47;100.00;102114.59;6192228;23;20043;-84
2023/10/07 00:28:32;;;;;;;13.55;4.78;;;;;;;14.45;100.00;102125.00;6192011;23;20021;-83
2023/10/07 00:31:03;;;;;;;13.37;4.93;;;;;;;14.45;100.00;102121.56;6193045;23;20064;-84
2023/10/07 00:39:07;;;;;;;13.88;4.95;;;;;;;14.43;100.00;102105.19;6186623;23;20026;-84
2023/10/07 00:41:39;;;;;;;12.23;5.28;;;;;;;14.44;100.00;102114.72;6185766;23;20026;-84
2023/10/07 00:44:31;;;;;;;16.00;5.53;;;;;;;14.46;100.00;102107.00;6161447;23;20022;-84
2023/10/07 00:49:41;;;;;;;14.13;5.13;;;;;;;14.47;100.00;102100.44;6186804;23;20049;-84
2023/10/07 00:52:12;;;;;;;13.98;5.93;;;;;;;14.46;100.00;102113.09;6185906;23;20018;-84
2023/10/07 00:54:50;;;;;;;16.08;5.55;;;;;;;14.46;100.00;102107.00;6161128;23;20026;-84
2023/10/07 00:57:53;;;;;;;8.60;5.05;;;;;;;14.44;100.00;102093.28;6185818;23;20017;-85
2023/10/07 01:00:30;;;;;;;16.95;6.03;;;;;;;14.43;100.00;102087.16;6160658;23;20088;-84
2023/10/07 01:03:47;;;;;;;14.25;5.40;;;;;;;14.43;100.00;102094.47;6186591;23;20018;-84
2023/10/07 01:08:32;;;;;;;10.65;5.35;;;;;;;14.41;100.00;102102.94;6188890;23;20056;-84
2023/10/07 01:11:22;;;;;;;14.38;5.25;;;;;;;14.41;100.00;102104.84;6191787;23;20052;-84
2023/10/07 01:13:50;;;;;;;13.43;5.25;;;;;;;14.38;100.00;102095.75;6187583;23;20443;-84
2023/10/07 01:19:43;;;;;;;17.85;6.05;;;;;;;14.37;100.00;102102.28;6189717;23;20017;-84
2023/10/07 01:22:05;;;;;;;11.38;5.43;;;;;;;14.37;100.00;102085.47;6181869;23;20014;-84
2023/10/07 01:27:18;;;;;;;11.32;5.53;;;;;;;14.40;100.00;102103.34;6188576;23;20512;-85
2023/10/07 01:30:29;;;;;;;14.43;5.70;;;;;;;14.41;100.00;102094.91;6189368;23;20020;-84
2023/10/07 01:32:48;;;;;;;13.38;5.53;;;;;;;14.42;100.00;102101.00;6184449;23;20013;-84
2023/10/07 01:35:25;;;;;;;12.98;5.55;;;;;;;14.44;100.00;102099.38;6162621;23;20024;-84
2023/10/07 01:38:06;;;;;;;12.32;6.13;;;;;;;14.44;100.00;102087.91;6187577;23;20066;-83
2023/10/07 01:40:55;;;;;;;;;;;;;;;14.46;100.00;102085.56;6187416;23;20033;-85
2023/10/07 01:43:24;;;;;;;12.32;5.53;;;;;;;14.47;100.00;102087.06;6162724;23;19943;-85
2023/10/07 01:45:53;;;;;;;14.35;5.47;;;;;;;14.47;100.00;102082.44;6163007;23;20097;-85
2023/10/07 01:48:20;;;;;;;12.27;5.97;;;;;;;14.48;100.00;102081.25;6162141;23;20340;-85
2023/10/07 01:50:49;;;;;;;15.85;6.10;;;;;;;14.51;100.00;102079.66;6188521;23;20464;-85
2023/10/07 01:53:16;;;;;;;17.27;6.22;;;;;;;14.51;100.00;102077.72;6187503;23;20041;-85
2023/10/07 01:55:43;;;;;;;10.40;5.80;;;;;;;14.53;100.00;102079.97;6188476;23;20121;-85
2023/10/07 01:58:14;;;;;;;15.85;6.05;;;;;;;14.54;100.00;102076.84;6162545;23;20033;-86
2023/10/07 02:00:57;;;;;;;15.77;6.53;;;;;;;14.54;100.00;102076.09;6187138;23;20540;-85
2023/10/07 02:03:25;;;;;;;13.90;5.53;;;;;;;14.56;100.00;102085.22;6186861;23;20544;-85
2023/10/07 02:05:52;;;;;;;16.55;6.32;;;;;;;14.57;100.00;102080.59;6187205;23;20018;-85
2023/10/07 02:08:22;;;;;;;13.57;6.03;;;;;;;14.58;100.00;102082.84;6186811;23;20029;-85
2023/10/07 02:10:52;;;;;;;14.23;5.93;;;;;;;14.59;100.00;102081.66;6187310;23;20021;-85
2023/10/07 02:13:19;;;;;;;13.73;5.78;;;;;;;14.59;100.00;102073.63;6188677;23;20020;-84
2023/10/07 02:15:47;;;;;;;14.48;5.93;;;;;;;14.59;100.00;102078.97;6162332;23;20053;-84
2023/10/07 02:18:17;;;;;;;15.95;6.25;;;;;;;14.61;100.00;102075.88;6187205;23;20128;-85
2023/10/07 02:20:49;;;;;;;12.77;6.38;;;;;;;14.62;100.00;102069.34;6187605;23;20022;-84
2023/10/07 02:23:32;;;;;;;14.73;6.85;;;;;;;14.63;100.00;102076.19;6186150;23;20013;-85
2023/10/07 02:25:59;;;;;;;14.40;6.10;;;;;;;14.65;100.00;102076.50;6187942;23;20096;-84
2023/10/07 02:28:32;;;;;;;12.85;6.25;;;;;;;14.64;100.00;102069.66;6187426;23;20018;-84
2023/10/07 02:31:07;;;;;;;11.95;5.72;;;;;;;14.66;100.00;102080.69;6187232;23;20092;-85
2023/10/07 02:33:57;;;;;;;14.65;6.20;;;;;;;14.67;100.00;102074.88;6186879;23;20319;-85
2023/10/07 02:36:36;;;;;;;18.27;6.38;;;;;;;14.68;100.00;102073.69;6186494;23;20017;-85
2023/10/07 02:39:18;;;;;;;15.88;6.43;;;;;;;14.68;100.00;102076.38;6186675;23;20461;-85
2023/10/07 02:41:46;;;;;;;12.32;6.47;;;;;;;14.70;100.00;102075.94;6186928;23;20084;-85
2023/10/07 02:44:25;;;;;;;17.23;5.82;;;;;;;14.71;100.00;102068.66;6186510;23;20470;-85
2023/10/07 02:46:52;;;;;;;19.70;5.97;;;;;;;14.72;100.00;102067.47;6187043;23;20018;-85
2023/10/07 02:49:25;;;;;;;18.40;6.50;;;;;;;14.73;100.00;102061.69;6163085;23;20026;-85
2023/10/07 02:51:57;;;;;;;;;;;;;;;14.74;100.00;102060.50;6164267;23;20092;-85
2023/10/07 02:54:32;;;;;;;12.68;5.43;;;;;;;14.73;100.00;102061.69;6190248;23;19995;-84
2023/10/07 02:59:50;;;;;;;13.50;6.25;;;;;;;14.75;100.00;102077.31;6188539;23;20036;-85
2023/10/07 03:07:41;;;;;;;12.68;5.97;;;;;;;14.76;100.00;102076.88;6190492;23;20444;-85
2023/10/07 03:11:11;;;;;;;19.50;5.75;;;;;;;14.76;100.00;102071.53;6193371;23;20530;-85
2023/10/07 03:13:05;;;;;;;16.88;6.20;;;;;;;14.78;100.00;102074.53;6179553;23;20014;-85
2023/10/07 03:18:03;;;;;;;17.85;5.97;;;;;;;14.78;100.00;102061.13;6188207;23;20053;-85
2023/10/07 03:20:31;;;;;;;18.55;5.88;;;;;;;14.78;100.00;102066.47;6188093;23;20033;-85
2023/10/07 03:23:14;;;;;;;13.50;5.72;;;;;;;14.80;100.00;102056.03;6187784;23;20443;-85
2023/10/07 03:26:05;;;;;;;20.17;5.93;;;;;;;14.81;100.00;102054.13;6189953;23;20019;-84
2023/10/07 03:28:36;;;;;;;18.17;5.85;;;;;;;14.81;100.00;102062.91;6189730;23;20444;-84
2023/10/07 03:31:10;;;;;;;12.50;5.63;;;;;;;14.82;100.00;102060.97;6163465;23;20463;-85
2023/10/07 03:33:53;;;;;;;17.42;5.55;;;;;;;14.83;100.00;102067.84;6190151;23;20013;-85
2023/10/07 03:39:17;;;;;;;20.63;6.28;;;;;;;14.83;100.00;102060.53;6188539;23;20483;-84
2023/10/07 03:41:51;;;;;;;14.65;6.45;;;;;;;14.84;100.00;102063.97;6163532;23;20048;-85
2023/10/07 03:44:20;;;;;;;11.25;5.05;;;;;;;14.84;100.00;102067.41;6189976;23;20017;-85
2023/10/07 03:46:50;;;;;;;15.15;5.60;;;;;;;14.85;100.00;102055.47;6188138;23;20049;-85
2023/10/07 03:49:21;;;;;;;13.80;5.28;;;;;;;14.86;100.00;102058.91;6190274;23;20018;-85
2023/10/07 03:51:48;;;;;;;14.40;5.35;;;;;;;14.86;100.00;102059.66;6189716;23;20076;-85
2023/10/07 03:54:24;;;;;;;14.57;6.30;;;;;;;14.85;100.00;102055.47;6189937;23;20077;-85
2023/10/07 03:56:51;;;;;;;15.82;5.85;;;;;;;14.85;100.00;102052.81;6189471;23;20013;-85
2023/10/07 03:59:18;;;;;;;11.70;6.13;;;;;;;14.85;100.00;102055.47;6187903;23;20434;-85
2023/10/07 04:01:45;;;;;;;13.45;5.97;;;;;;;14.86;100.00;102050.88;6188855;23;20104;-85
2023/10/07 04:04:12;;;;;;;15.10;6.30;;;;;;;14.85;100.00;102063.53;6163842;23;20021;-86
2023/10/07 04:06:40;;;;;;;16.98;6.45;;;;;;;14.85;100.00;102065.47;6188035;23;20014;-86
2023/10/07 04:09:08;;;;;;;16.95;6.90;;;;;;;14.85;100.00;102066.22;6212989;23;20452;-85
2023/10/07 04:11:37;;;;;;;16.77;6.45;;;;;;;14.83;100.00;102063.22;6190230;23;20474;-86
2023/10/07 04:14:18;;;;;;;16.20;6.28;;;;;;;14.84;100.00;102059.34;6188387;23;20022;-85
2023/10/07 04:16:48;;;;;;;16.70;6.38;;;;;;;14.84;100.00;102069.31;6188593;23;20103;-84
2023/10/07 04:21:45;;;;;;;13.50;6.20;;;;;;;14.83;100.00;102068.56;6188296;23;20109;-85
2023/10/07 04:24:12;;;;;;;13.02;6.22;;;;;;;14.84;100.00;102066.66;6189680;23;20017;-85
2023/10/07 04:26:42;;;;;;;14.77;6.30;;;;;;;14.84;100.00;102059.34;6189734;23;20018;-85
2023/10/07 04:29:21;;;;;;;14.73;6.25;;;;;;;14.84;100.00;102054.00;6189927;23;20021;-86
2023/10/07 04:31:53;;;;;;;16.00;6.30;;;;;;;14.83;100.00;102057.84;6190241;23;20030;-85
2023/10/07 04:34:21;;;;;;;10.13;6.10;;;;;;;14.84;100.00;102055.91;6189199;23;20013;-86
2023/10/07 04:39:29;;;;;;;11.10;6.10;;;;;;;14.85;100.00;102054.75;6189479;23;20018;-84
2023/10/07 04:41:59;;;;;;;13.43;5.97;;;;;;;14.85;100.00;102058.16;6190198;23;20018;-84
2023/10/07 04:45:16;;;;;;;19.75;6.63;;;;;;;14.84;100.00;102064.72;6189570;23;20451;-85
2023/10/07 04:47:38;;;;;;;19.17;6.70;;;;;;;14.86;100.00;102067.72;6187587;23;20024;-84
2023/10/07 04:50:15;;;;;;;19.42;6.60;;;;;;;14.86;100.00;102058.91;6187959;23;20018;-84
2023/10/07 04:52:50;;;;;;;16.92;6.30;;;;;;;14.87;100.00;102063.84;6189731;23;20477;-85
2023/10/07 04:55:25;;;;;;;14.50;6.13;;;;;;;14.89;100.00;102060.72;6163144;23;20025;-85
2023/10/07 05:00:36;;;;;;;12.63;5.75;;;;;;;14.89;100.00;102050.75;6187522;23;20032;-85
2023/10/07 05:03:16;;;;;;;17.92;6.40;;;;;;;14.90;100.00;102033.47;6162625;23;20026;-83
2023/10/07 05:05:43;;;;;;;16.33;6.38;;;;;;;14.90;100.00;102035.41;6188587;23;20529;-84
2023/10/07 05:08:11;;;;;;;16.80;6.85;;;;;;;14.90;100.00;102032.72;6170086;23;20013;-84
2023/10/07 05:10:41;;;;;;;19.98;6.90;;;;;;;14.90;100.00;102033.47;6197400;23;20019;-84
2023/10/07 05:13:10;;;;;;;19.52;6.75;;;;;;;14.91;100.00;102037.66;6191484;23;20025;-84
2023/10/07 05:15:41;;;;;;;14.52;6.65;;;;;;;14.91;100.00;102043.00;6188091;23;20076;-84
2023/10/07 05:18:12;;;;;;;18.15;7.10;;;;;;;14.91;100.00;102032.28;6189030;23;20017;-85
2023/10/07 05:20:41;;;;;;;14.93;6.90;;;;;;;14.91;100.00;102029.63;6187756;23;20028;-85
2023/10/07 05:23:14;;;;;;;16.83;6.60;;;;;;;14.91;100.00;102021.56;6187309;23;20268;-85
2023/10/07 05:26:24;;;;;;;16.73;7.00;;;;;;;14.90;100.00;102036.16;6187579;23;20530;-85
2023/10/07 05:28:32;;;;;;;14.77;7.28;;;;;;;14.89;100.00;102031.97;6181270;23;20380;-84
2023/10/07 05:31:03;;;;;;;14.80;6.85;;;;;;;14.90;100.00;102036.16;6189600;23;20021;-84
2023/10/07 05:33:35;;;;;;;12.15;6.63;;;;;;;14.91;100.00;102043.00;6188566;23;20022;-84
2023/10/07 05:36:11;;;;;;;16.83;6.38;;;;;;;14.91;100.00;102053.75;6188031;23;20559;-84
2023/10/07 05:38:38;;;;;;;15.07;6.80;;;;;;;14.91;100.00;102047.63;6189185;23;20443;-84
2023/10/07 05:41:12;;;;;;;17.70;6.50;;;;;;;14.91;100.00;102051.06;6187257;23;20021;-84
2023/10/07 05:43:43;;;;;;;12.80;6.05;;;;;;;14.93;100.00;102056.72;6189750;23;20516;-84
2023/10/07 05:46:10;;;;;;;16.15;6.28;;;;;;;14.95;100.00;102056.31;6188910;23;20018;-84
2023/10/07 05:48:38;;;;;;;18.52;6.10;;;;;;;14.95;100.00;102062.41;6189561;23;20020;-84
2023/10/07 05:51:09;;;;;;;15.52;5.97;;;;;;;14.96;100.00;102057.78;6188141;23;20048;-84
2023/10/07 05:53:40;;;;;;;13.30;5.43;;;;;;;14.97;100.00;102045.88;6189195;23;20028;-85
2023/10/07 05:56:07;;;;;;;14.20;5.60;;;;;;;14.99;100.00;102044.25;6189004;23;20017;-85
2023/10/07 05:58:35;;;;;;;19.67;6.10;;;;;;;15.02;100.00;102048.00;6187489;23;20045;-84
2023/10/07 06:01:03;;;;;;;15.32;5.95;;;;;;;15.04;100.00;102058.28;6189600;23;20061;-85
2023/10/07 06:03:30;;;;;;;15.15;6.18;;;;;;;15.05;100.00;102070.50;6193149;23;20024;-84
2023/10/07 06:05:57;;;;;;;14.57;5.07;;;;;;;15.06;100.00;102063.97;6163406;23;20021;-84
2023/10/07 06:08:28;;;;;;;16.35;5.72;;;;;;;15.09;100.00;102074.56;6189002;23;20021;-84
2023/10/07 06:10:56;;;;;;;20.63;5.35;;;;;;;15.09;100.00;102069.22;6187957;23;20097;-84
2023/10/07 06:13:26;;;;;;;14.15;5.50;;;;;;;15.13;100.00;102066.41;6187704;23;20025;-84
2023/10/07 06:15:55;;;;;;;17.73;5.32;;;;;;;15.15;100.00;102062.09;6188481;23;20089;-85
2023/10/07 06:18:23;;;;;;;19.88;5.53;;;;;;;15.17;100.00;102056.28;6188726;23;20029;-83
2023/10/07 06:20:51;;;;;;;18.42;6.03;;;;;;;15.20;100.00;102058.06;6164205;23;20022;-83
2023/10/07 06:23:24;;;;;;;16.88;5.20;;;;;;;15.23;100.00;102060.63;6190618;23;20456;-84
2023/10/07 06:25:52;;;;;;;16.33;5.78;;;;;;;15.25;100.00;102052.13;6190263;23;20448;-82
2023/10/07 06:31:10;;;;;;;20.88;5.53;;;;;;;15.34;100.00;102063.66;6188848;23;20041;-79
2023/10/07 06:33:41;;;;;;;14.18;5.05;;;;;;;15.39;100.00;102062.34;6191633;23;20448;-86
2023/10/07 06:36:12;;;;;;;13.38;5.78;;;;;;;15.43;100.00;102078.31;6191939;23;20100;-86
2023/10/07 06:38:51;;;;;;;13.45;5.68;;;;;;;15.47;100.00;102073.56;6191328;23;20419;-84
2023/10/07 06:41:19;;;;;;;19.92;5.22;;;;;;;15.51;100.00;102063.44;6191909;23;20052;-87
2023/10/07 06:43:53;;;;;;;18.50;5.85;;;;;;;15.54;100.00;102074.06;6191704;23;20088;-82
2023/10/07 06:46:21;;;;;;;14.60;5.97;;;;;;;15.57;100.00;102078.56;6190242;23;20013;-83
2023/10/07 06:48:49;;;;;;;18.33;6.03;;;;;;;15.61;100.00;102079.16;6192872;23;20013;-82
2023/10/07 06:51:16;;;;;;;18.08;6.10;;;;;;;15.63;100.00;102079.47;6191561;23;20052;-82
2023/10/07 06:53:43;;;;;;;15.18;6.03;;;;;;;15.66;100.00;102075.16;6187922;23;20032;-78
2023/10/07 06:56:20;;;;;;;20.00;6.45;;;;;;;15.68;100.00;102062.78;6189019;23;20017;-81
2023/10/07 06:58:53;;;;;;;19.58;6.75;;;;;;;15.72;100.00;102078.00;6189494;23;20498;-83
2023/10/07 07:04:09;;;;;;;18.98;6.25;;;;;;;15.78;100.00;102076.22;6193177;23;20021;-86
2023/10/07 07:06:44;;;;;;;16.63;6.32;;;;;;;15.81;100.00;102075.34;6194236;23;20014;-89
2023/10/07 07:12:09;;;;;;;13.55;6.22;;;;;;;15.87;100.00;102084.31;6206109;23;20920;-89
2023/10/07 07:14:37;;;;;;;21.02;5.97;;;;;;;15.89;100.00;102079.25;6227344;23;20025;-89
2023/10/07 07:22:49;;;;;;;16.70;6.25;;;;;;;16.00;100.00;102076.88;6221262;23;20021;-89
2023/10/07 07:25:39;;;;;;;18.58;6.10;;;;;;;16.04;100.00;102085.53;6220400;23;20021;-87
2023/10/07 07:28:06;;;;;;;12.63;6.38;;;;;;;16.06;100.00;102093.16;6220006;23;20023;-83
2023/10/07 07:30:35;;;;;;;19.20;6.00;;;;;;;16.10;100.00;102110.63;6220967;23;20017;-85
2023/10/07 07:33:15;;;;;;;16.85;6.22;;;;;;;16.12;100.00;102102.88;6220164;23;20391;-86
2023/10/07 07:35:51;;;;;;;23.75;6.65;;;;;;;16.13;100.00;102099.00;6193555;23;20459;-85
2023/10/07 07:38:30;;;;;;;17.55;6.72;;;;;;;16.15;100.00;102104.69;6220434;23;20013;-85
2023/10/07 07:41:04;;;;;;;21.13;7.15;;;;;;;16.16;100.00;102106.16;6220387;23;20017;-85
2023/10/07 07:43:36;;;;;;;17.50;7.18;;;;;;;16.16;100.00;102116.91;6219104;23;20017;-85
2023/10/07 07:46:26;;;;;;;16.00;7.05;;;;;;;16.19;100.00;102117.97;6220173;23;20021;-87
2023/10/07 07:48:53;;;;;;;20.65;7.13;;;;;;;16.29;100.00;102117.53;6220202;23;20013;-86
2023/10/07 07:51:24;;;;;;;18.80;6.90;;;;;;;16.40;100.00;102121.72;6220260;23;20021;-86
2023/10/07 07:53:52;;;;;;;14.30;7.30;;;;;;;16.46;100.00;102117.25;6220220;23;20415;-89
2023/10/07 07:56:20;;;;;;;22.23;6.93;;;;;;;16.52;100.00;102115.47;6220586;23;20020;-86
2023/10/07 07:58:50;;;;;;;17.15;6.72;;;;;;;16.58;100.00;102106.38;6221548;23;20017;-83
2023/10/07 08:01:23;;;;;;;17.48;6.95;;;;;;;16.67;100.00;102113.72;6222066;23;20021;-88
2023/10/07 08:03:50;;;;;;;15.27;7.13;;;;;;;16.78;100.00;102119.41;6199686;23;20100;-90
2023/10/07 08:06:20;;;;;;;14.27;6.85;;;;;;;16.87;100.00;102116.69;6223312;23;20021;-91
2023/10/07 08:08:49;;;;;;;15.68;6.88;;;;;;;16.96;100.00;102111.28;6223468;23;20056;-88
2023/10/07 08:11:17;;;;;;;16.60;6.75;;;;;;;17.10;100.00;102104.56;6183553;23;20100;-89
2023/10/07 08:13:46;;;;;;;18.80;6.63;;;;;;;17.18;100.00;102094.97;6225408;23;20071;-88
2023/10/07 08:16:16;;;;;;;21.13;6.40;;;;;;;17.28;100.00;102084.91;6223731;23;20075;-88
2023/10/07 08:18:44;;;;;;;21.42;7.07;;;;;;;17.34;100.00;102083.84;6223894;23;20009;-88
2023/10/07 08:21:13;;;;;;;11.90;6.45;;;;;;;17.37;100.00;102082.19;6223151;23;20027;-91
2023/10/07 08:23:41;;;;;;;17.45;6.50;;;;;;;17.47;100.00;102080.22;6195590;23;20017;-87
2023/10/07 08:26:10;;;;;;;12.02;6.32;;;;;;;17.51;100.00;102088.88;6195220;23;20018;-92
2023/10/07 08:28:42;;;;;;;14.95;6.65;;;;;;;17.58;100.00;102094.69;6195367;23;20013;-86
2023/10/07 08:31:18;;;;;;;13.65;6.03;;;;;;;17.63;100.00;102102.13;6171845;23;20156;-84
2023/10/07 08:33:53;;;;;;;17.20;6.07;;;;;;;17.76;100.00;102095.81;6196971;23;20546;-83
2023/10/07 08:36:29;;;;;;;14.10;6.05;;;;;;;17.84;100.00;102096.97;6193696;23;20017;-81
2023/10/07 08:38:59;;;;;;;18.75;6.40;;;;;;;17.90;100.00;102097.84;6220575;23;20095;-82
2023/10/07 08:41:27;;;;;;;14.73;6.40;;;;;;;17.93;100.00;102110.41;6191800;23;20388;-82
2023/10/07 08:44:15;;;;;;;12.93;6.25;;;;;;;18.03;100.00;102108.38;6220563;23;20020;-81
2023/10/07 08:46:52;;;;;;;15.20;6.03;;;;;;;18.10;99.91;102105.34;6193195;23;20463;-83
2023/10/07 08:49:26;;;;;;;15.07;5.95;;;;;;;18.18;98.31;102106.50;6194441;23;20016;-82
2023/10/07 08:51:54;;;;;;;14.18;5.68;;;;;;;18.15;98.09;102107.41;6223100;23;20068;-83
2023/10/07 08:54:37;;;;;;;20.23;7.18;;;;;;;18.17;97.66;102105.75;6194816;23;20021;-83
2023/10/07 08:57:16;;;;;;;17.65;6.20;;;;;;;18.22;96.75;102101.69;6196331;23;20469;-82
2023/10/07 08:59:49;;;;;;;16.00;6.28;;;;;;;18.34;96.45;102098.03;6221327;23;20020;-85
2023/10/07 09:02:26;;;;;;;12.52;6.05;;;;;;;18.45;95.65;102110.94;6224834;23;20017;-91
2023/10/07 09:04:55;;;;;;;12.32;5.30;;;;;;;18.50;94.89;102097.56;6201597;23;20774;-82
2023/10/07 09:07:22;;;;;;;11.43;5.40;;;;;;;18.50;94.48;102099.53;6223991;23;20510;-82
2023/10/07 09:09:49;;;;;;;12.73;6.10;;;;;;;18.49;94.25;102092.66;6219430;23;20013;-82
2023/10/07 09:12:18;;;;;;;10.10;5.60;;;;;;;18.54;94.51;102097.41;6195784;23;20023;-85
2023/10/07 09:14:52;;;;;;;11.68;5.45;;;;;;;18.64;93.71;102096.16;6195934;23;20025;-85
2023/10/07 09:17:29;;;;;;;9.25;5.30;;;;;;;18.64;94.29;102115.03;6219669;23;20021;-85
2023/10/07 09:20:00;;;;;;;16.60;5.90;;;;;;;18.77;93.28;102109.38;6193155;23;20430;-85
2023/10/07 09:22:35;;;;;;;;;;;;;;;18.88;94.54;102102.22;6220161;23;20100;-82
2023/10/07 09:25:17;;;;;;;12.35;4.85;;;;;;;18.96;92.66;102106.03;6192651;23;20334;-84
2023/10/07 09:27:54;;;;;;;13.38;5.25;;;;;;;18.95;91.52;102115.34;6192133;23;20028;-84
2023/10/07 09:30:36;;;;;;;19.83;5.57;;;;;;;18.93;91.38;102117.00;6192317;23;20018;-81
2023/10/07 09:33:06;;;;;;;18.55;5.30;;;;;;;19.02;91.80;102119.63;6193049;23;20021;-83
2023/10/07 09:35:35;;;;;;;18.73;4.60;;;;;;;19.10;91.19;102128.09;6192863;23;20084;-81
2023/10/07 09:38:02;;;;;;;15.07;4.47;;;;;;;19.09;90.22;102121.97;6219002;23;20177;-83
2023/10/07 09:43:19;;;;;;;13.02;4.78;;;;;;;19.20;89.53;102124.81;6219231;23;20021;-84
2023/10/07 09:45:52;;;;;;;11.38;4.45;;;;;;;19.44;89.02;102124.72;6192699;23;20455;-84
2023/10/07 09:48:33;;;;;;;10.27;4.40;;;;;;;19.62;88.64;102129.19;6192722;23;20021;-86
2023/10/07 09:51:02;;;;;;;14.63;4.18;;;;;;;19.62;87.79;102138.03;6219163;23;20013;-87
2023/10/07 09:53:55;;;;;;;13.05;4.50;;;;;;;19.53;87.64;102132.75;6190914;23;20024;-82
2023/10/07 09:56:48;;;;;;;16.60;4.28;;;;;;;19.59;87.82;102135.53;6218475;23;20013;-83
2023/10/07 09:59:32;;;;;;;9.30;4.25;;;;;;;19.60;87.08;102137.00;6220126;23;20017;-81
2023/10/07 10:02:26;;;;;;;16.08;4.68;;;;;;;19.48;86.17;102130.69;6221668;23;20023;-83
2023/10/07 10:05:11;;;;;;;11.75;3.90;;;;;;;19.49;87.25;102134.88;6220943;23;20013;-82
2023/10/07 10:08:11;;;;;;;10.32;4.10;;;;;;;19.52;87.36;102125.13;6194733;23;20174;-84
2023/10/07 10:10:44;;;;;;;15.45;4.55;;;;;;;19.54;86.33;102120.75;6196479;23;20025;-84
2023/10/07 10:16:18;;;;;;;12.70;4.85;;;;;;;19.67;86.08;102108.88;6221674;23;20013;-83
2023/10/07 10:18:51;;;;;;;9.30;4.63;;;;;;;19.66;85.03;102118.94;6221040;23;20013;-82
2023/10/07 10:21:22;;;;;;;15.80;4.75;;;;;;;19.72;85.06;102113.59;6220362;23;20048;-77
2023/10/07 10:23:51;;;;;;;15.70;4.47;;;;;;;19.82;84.71;102115.72;6220234;23;20013;-81
2023/10/07 10:26:22;;;;;;;15.35;4.65;;;;;;;19.89;83.49;102114.59;6218306;23;20309;-80
2023/10/07 10:29:04;;;;;;;9.70;3.80;;;;;;;19.92;83.62;102113.66;6221472;23;20096;-80
2023/10/07 10:31:34;;;;;;;16.40;3.95;;;;;;;19.98;84.08;102095.56;6193982;23;20410;-80
2023/10/07 10:34:05;;;;;;;10.98;4.10;;;;;;;19.91;80.53;102085.88;6193311;23;20048;-81
2023/10/07 10:36:38;;;;;;;9.90;4.37;;;;;;;19.87;79.72;102115.06;6219326;23;20044;-79
2023/10/07 10:39:25;;;;;;;14.38;4.00;;;;;;;19.94;79.67;102122.03;6220446;23;20021;-81
2023/10/07 10:42:09;;;;;;;;;;;;;;;20.05;81.99;102122.16;6220439;23;20400;-84
2023/10/07 10:44:37;;;;;;;9.48;4.10;;;;;;;19.96;79.47;102116.91;6220546;23;19920;-84
2023/10/07 10:47:06;;;;;;;15.45;4.47;;;;;;;19.83;78.86;102128.03;6168663;23;20447;-87
2023/10/07 10:49:43;;;;;;;13.52;4.38;;;;;;;19.73;77.98;102134.75;6220433;23;20043;-85
2023/10/07 10:52:12;;;;;;;8.52;4.22;;;;;;;19.62;78.26;102132.63;6219040;23;20028;-83
2023/10/07 10:54:39;;;;;;;12.57;4.60;;;;;;;19.65;77.43;102128.25;6218465;23;20047;-86
2023/10/07 10:57:07;;;;;;;9.40;3.70;;;;;;;19.70;77.38;102126.84;6192037;23;20067;-86
2023/10/07 10:59:47;;;;;;;8.48;3.80;;;;;;;19.73;77.00;102134.75;6191540;23;20443;-86
2023/10/07 11:02:22;;;;;;;10.10;4.15;;;;;;;19.70;77.47;102145.75;6192268;23;20112;-87
2023/10/07 11:04:56;;;;;;;15.70;4.22;;;;;;;19.70;77.98;102148.44;6219328;23;20013;-87
2023/10/07 11:07:23;;;;;;;11.98;4.20;;;;;;;19.72;78.12;102151.44;6219213;23;20013;-86
2023/10/07 11:09:53;;;;;;;9.30;4.28;;;;;;;19.74;78.57;102151.72;6221080;23;20013;-87
2023/10/07 11:12:26;;;;;;;10.88;3.95;;;;;;;19.72;78.79;102146.78;6197262;23;20032;-84
2023/10/07 11:15:07;;;;;;;10.32;4.00;;;;;;;19.82;79.07;102147.41;6221937;23;20092;-85
2023/10/07 11:17:41;;;;;;;14.13;4.37;;;;;;;19.94;78.01;102151.75;6219163;23;20024;-84
2023/10/07 11:20:10;;;;;;;14.60;4.57;;;;;;;20.08;78.84;102153.66;6193066;23;20024;-85
2023/10/07 11:22:38;;;;;;;14.15;4.60;;;;;;;20.17;78.51;102150.81;6220244;23;20025;-87
2023/10/07 11:25:14;;;;;;;13.02;4.47;;;;;;;20.24;76.51;102142.31;6193920;23;20017;-85
2023/10/07 11:27:42;;;;;;;9.50;4.43;;;;;;;20.31;74.94;102157.41;6220212;23;20458;-86
2023/10/07 11:30:14;;;;;;;16.17;4.07;;;;;;;20.39;75.07;102146.94;6193895;23;20478;-86
2023/10/07 11:32:43;;;;;;;9.82;3.88;;;;;;;20.37;73.26;102146.66;6220096;23;20052;-85
2023/10/07 11:35:19;;;;;;;9.48;4.13;;;;;;;20.28;73.71;102150.97;6219263;23;20048;-83
2023/10/07 11:37:57;;;;;;;12.10;4.35;;;;;;;20.24;74.48;102134.19;6220921;23;20013;-84
2023/10/07 11:40:26;;;;;;;15.20;4.13;;;;;;;20.31;75.35;102122.97;6219593;23;20418;-84
2023/10/07 11:42:53;;;;;;;10.93;4.13;;;;;;;20.32;74.86;102129.13;6193710;23;20028;-85
2023/10/07 11:45:23;;;;;;;7.00;3.78;;;;;;;20.32;74.18;102131.84;6219627;23;20017;-86
2023/10/07 11:47:49;;;;;;;11.25;3.75;;;;;;;20.43;74.04;102139.34;6192789;23;20048;-86
2023/10/07 11:50:17;;;;;;;11.57;3.78;;;;;;;20.47;73.24;102134.47;6219155;23;20051;-86
2023/10/07 11:52:44;;;;;;;14.60;4.38;;;;;;;20.43;73.58;102147.47;6220464;23;20048;-85
2023/10/07 11:55:11;;;;;;;11.48;4.13;;;;;;;20.43;73.78;102145.50;6221928;23;20013;-85
2023/10/07 11:57:38;;;;;;;17.65;4.90;;;;;;;20.45;73.23;102145.03;6219677;23;20076;-86
2023/10/07 12:00:09;;;;;;;14.23;4.53;;;;;;;20.48;73.23;102146.78;6192923;23;20041;-80
2023/10/07 12:02:39;;;;;;;10.43;3.75;;;;;;;20.53;73.74;102146.09;6193685;23;20033;-87
2023/10/07 12:05:07;;;;;;;8.00;3.95;;;;;;;20.59;72.58;102146.91;6192011;23;20021;-87
2023/10/07 12:07:35;;;;;;;10.23;3.63;;;;;;;20.58;73.21;102148.88;6192548;23;20525;-85
2023/10/07 12:10:06;;;;;;;11.45;4.07;;;;;;;20.61;73.78;102141.78;6217591;23;20051;-84
2023/10/07 12:12:32;;;;;;;14.90;4.20;;;;;;;20.59;73.41;102149.63;6219699;23;20048;-82
2023/10/07 12:14:59;;;;;;;12.30;4.30;;;;;;;20.52;73.25;102142.66;6219997;23;20021;-85
2023/10/07 12:17:26;;;;;;;8.10;4.28;;;;;;;20.44;73.56;102143.53;6192254;23;20374;-84
2023/10/07 12:19:53;;;;;;;12.52;4.47;;;;;;;20.35;74.14;102157.19;6219573;23;20017;-81
2023/10/07 12:22:20;;;;;;;9.23;4.13;;;;;;;20.33;74.15;102148.81;6218668;23;20051;-83
2023/10/07 12:24:46;;;;;;;8.65;3.92;;;;;;;20.34;74.37;102132.13;6219725;23;20013;-82
2023/10/07 12:27:13;;;;;;;10.07;4.60;;;;;;;20.33;74.80;102124.47;6219541;23;20025;-84
2023/10/07 12:29:39;;;;;;;9.48;3.58;;;;;;;20.37;74.36;102130.41;6219626;23;20024;-83
2023/10/07 12:32:06;;;;;;;11.90;4.10;;;;;;;20.43;74.27;102120.41;6219171;23;20083;-81
2023/10/07 12:34:33;;;;;;;13.07;4.13;;;;;;;20.46;73.85;102122.91;6192704;23;20477;-81
2023/10/07 12:36:59;;;;;;;10.77;3.92;;;;;;;20.47;73.54;102112.84;6219987;23;20439;-84